Mariner Of The Seas — C6FV9 — position and weather

sailwx.info

Track history (hours):
 
Tides and Currents Weather Stations Pressure Air Temp Water Temp Dewpoint Dewpoint Depression Visibility Wind Speed Wind Dir Waves Ship Positions

Mariner Of The Seas

Operator: Royal Caribbean Cruises Ltd

Last reported at 2016-Aug-24 07:30 UTC. Time now 2016-Aug-24 08:30 UTC.
Position N 31°25' E 121°30'.

Type: Passenger vessel. MMSI: 311493000.

Date/timePositionNaut miles runAvg speedWind from/ knotsBaromVisibWave heightAir tempDewpointWater temp
2016-Aug-24 07:30N 31°25' E 121°30'0 0.0
2016-Aug-24 06:33N 31°25' E 121°30'0 0.0
2016-Aug-24 04:33N 31°25' E 121°30'0 0.0
2016-Aug-24 03:33N 31°25' E 121°30'0 0.0
2016-Aug-24 02:30N 31°25' E 121°30'0 0.0
2016-Aug-24 01:30N 31°25' E 121°30'0 0.0
2016-Aug-24 00:33N 31°25' E 121°30'0 0.0
2016-Aug-23 23:33N 31°25' E 121°30'0 0.0
2016-Aug-23 22:33N 31°25' E 121°30'0 0.0
2016-Aug-23 21:30N 31°25' E 121°30'0 0.1
2016-Aug-23 20:33N 31°25' E 121°30'8 8.1
2016-Aug-23 19:34N 31°21' E 121°39'  
2016-Aug-20 09:30N 31°20' E 121°41'1111.3
2016-Aug-20 08:33N 31°25' E 121°30'0 0.2
2016-Aug-20 07:25N 31°25' E 121°30'0 0.0
2016-Aug-20 06:31N 31°25' E 121°30'0 0.0
2016-Aug-20 05:31N 31°25' E 121°30'0 0.0
2016-Aug-20 04:31N 31°25' E 121°30'0 0.0
2016-Aug-20 03:31N 31°25' E 121°30'0 0.0
2016-Aug-20 02:25N 31°25' E 121°30'0 0.0
2016-Aug-20 01:31N 31°25' E 121°30'0 0.0
2016-Aug-20 00:31N 31°25' E 121°30'0 0.0
2016-Aug-19 23:25N 31°25' E 121°30'0 0.1
2016-Aug-19 22:33N 31°25' E 121°30'9 9.0
2016-Aug-19 21:33N 31°21' E 121°40'  
2016-Aug-15 10:16N 31°19' E 121°45'912.2
2016-Aug-15 09:33N 31°23' E 121°36'5 4.5
2016-Aug-15 08:26N 31°25' E 121°30'0 0.0
2016-Aug-15 07:32N 31°25' E 121°30'0 0.0
2016-Aug-15 06:26N 31°25' E 121°30'0 0.0
2016-Aug-15 04:32N 31°25' E 121°30'0 0.0
2016-Aug-15 03:32N 31°25' E 121°30'0 0.0
2016-Aug-15 01:14N 31°25' E 121°30'0 0.0
2016-Aug-15 00:32N 31°25' E 121°30'0 0.0
2016-Aug-14 23:32N 31°25' E 121°30'4 3.7
2016-Aug-14 22:33N 31°24' E 121°34'  
Track history (hours):
 
Tides and Currents Weather Stations Pressure Air Temp Water Temp Dewpoint Dewpoint Depression Visibility Wind Speed Wind Dir Waves Ship Positions

Mariner Of The Seas

Operator: Royal Caribbean Cruises Ltd

Last reported at 2016-Aug-24 07:30 UTC. Time now 2016-Aug-24 08:30 UTC.
Position N 31°25' E 121°30'.

Type: Passenger vessel. MMSI: 311493000.

Date/timePositionNaut miles runAvg speedWind from/ knotsBaromVisibWave heightAir tempDewpointWater temp
2016-Aug-24 07:30N 31°25' E 121°30'0 0.0
2016-Aug-24 06:33N 31°25' E 121°30'0 0.0
2016-Aug-24 04:33N 31°25' E 121°30'0 0.0
2016-Aug-24 03:33N 31°25' E 121°30'0 0.0
2016-Aug-24 02:30N 31°25' E 121°30'0 0.0
2016-Aug-24 01:30N 31°25' E 121°30'0 0.0
2016-Aug-24 00:33N 31°25' E 121°30'0 0.0
2016-Aug-23 23:33N 31°25' E 121°30'0 0.0
2016-Aug-23 22:33N 31°25' E 121°30'0 0.0
2016-Aug-23 21:30N 31°25' E 121°30'0 0.1
2016-Aug-23 20:33N 31°25' E 121°30'8 8.1
2016-Aug-23 19:34N 31°21' E 121°39'  
2016-Aug-20 09:30N 31°20' E 121°41'1111.3
2016-Aug-20 08:33N 31°25' E 121°30'0 0.2
2016-Aug-20 07:25N 31°25' E 121°30'0 0.0
2016-Aug-20 06:31N 31°25' E 121°30'0 0.0
2016-Aug-20 05:31N 31°25' E 121°30'0 0.0
2016-Aug-20 04:31N 31°25' E 121°30'0 0.0
2016-Aug-20 03:31N 31°25' E 121°30'0 0.0
2016-Aug-20 02:25N 31°25' E 121°30'0 0.0
2016-Aug-20 01:31N 31°25' E 121°30'0 0.0
2016-Aug-20 00:31N 31°25' E 121°30'0 0.0
2016-Aug-19 23:25N 31°25' E 121°30'0 0.1
2016-Aug-19 22:33N 31°25' E 121°30'9 9.0
2016-Aug-19 21:33N 31°21' E 121°40'  
2016-Aug-15 10:16N 31°19' E 121°45'912.2
2016-Aug-15 09:33N 31°23' E 121°36'5 4.5
2016-Aug-15 08:26N 31°25' E 121°30'0 0.0
2016-Aug-15 07:32N 31°25' E 121°30'0 0.0
2016-Aug-15 06:26N 31°25' E 121°30'0 0.0
2016-Aug-15 04:32N 31°25' E 121°30'0 0.0
2016-Aug-15 03:32N 31°25' E 121°30'0 0.0
2016-Aug-15 01:14N 31°25' E 121°30'0 0.0
2016-Aug-15 00:32N 31°25' E 121°30'0 0.0
2016-Aug-14 23:32N 31°25' E 121°30'4 3.7
2016-Aug-14 22:33N 31°24' E 121°34'  

Dump ship's entire track history